sensor_id;sensor_type;location;lat;lon;timestamp;temperature;humidity
52555;DHT22;38455;52.710;6.502;2023-07-31T00:02:14;16.30;99.90
52555;DHT22;38455;52.710;6.502;2023-07-31T00:04:40;16.30;99.90
52555;DHT22;38455;52.710;6.502;2023-07-31T00:07:06;16.30;99.90
52555;DHT22;38455;52.710;6.502;2023-07-31T00:09:33;16.20;99.90
52555;DHT22;38455;52.710;6.502;2023-07-31T00:11:58;16.20;99.90
52555;DHT22;38455;52.710;6.502;2023-07-31T00:14:24;16.20;99.90
52555;DHT22;38455;52.710;6.502;2023-07-31T00:16:50;16.20;99.90
52555;DHT22;38455;52.710;6.502;2023-07-31T00:19:15;16.20;99.90
52555;DHT22;38455;52.710;6.502;2023-07-31T00:21:41;16.20;99.90
52555;DHT22;38455;52.710;6.502;2023-07-31T00:24:07;16.20;99.90
52555;DHT22;38455;52.710;6.502;2023-07-31T00:26:32;16.10;99.90
52555;DHT22;38455;52.710;6.502;2023-07-31T00:28:58;16.10;99.90
52555;DHT22;38455;52.710;6.502;2023-07-31T00:31:24;16.10;99.90
52555;DHT22;38455;52.710;6.502;2023-07-31T00:33:49;16.10;99.90
52555;DHT22;38455;52.710;6.502;2023-07-31T00:36:15;16.10;99.90
52555;DHT22;38455;52.710;6.502;2023-07-31T00:38:41;16.00;99.90
52555;DHT22;38455;52.710;6.502;2023-07-31T00:41:06;16.10;99.90
52555;DHT22;38455;52.710;6.502;2023-07-31T00:43:32;16.10;99.90
52555;DHT22;38455;52.710;6.502;2023-07-31T00:45:58;16.00;99.90
52555;DHT22;38455;52.710;6.502;2023-07-31T00:48:23;16.10;99.90
52555;DHT22;38455;52.710;6.502;2023-07-31T00:50:50;16.00;99.90
52555;DHT22;38455;52.710;6.502;2023-07-31T00:53:15;16.00;99.90
52555;DHT22;38455;52.710;6.502;2023-07-31T00:55:42;15.90;99.90
52555;DHT22;38455;52.710;6.502;2023-07-31T00:58:08;15.90;99.90
52555;DHT22;38455;52.710;6.502;2023-07-31T01:00:33;15.90;99.90
52555;DHT22;38455;52.710;6.502;2023-07-31T01:03:00;15.80;99.90
52555;DHT22;38455;52.710;6.502;2023-07-31T01:08:15;15.80;99.90
52555;DHT22;38455;52.710;6.502;2023-07-31T01:10:53;15.80;99.90
52555;DHT22;38455;52.710;6.502;2023-07-31T01:13:21;15.80;99.90
52555;DHT22;38455;52.710;6.502;2023-07-31T01:15:47;15.80;99.90
52555;DHT22;38455;52.710;6.502;2023-07-31T01:18:12;15.80;99.90
52555;DHT22;38455;52.710;6.502;2023-07-31T01:20:39;15.80;99.90
52555;DHT22;38455;52.710;6.502;2023-07-31T01:23:26;15.80;99.90
52555;DHT22;38455;52.710;6.502;2023-07-31T01:26:03;15.80;99.90
52555;DHT22;38455;52.710;6.502;2023-07-31T01:28:56;15.80;99.90
52555;DHT22;38455;52.710;6.502;2023-07-31T01:31:26;15.80;99.90
52555;DHT22;38455;52.710;6.502;2023-07-31T01:33:54;15.80;99.90
52555;DHT22;38455;52.710;6.502;2023-07-31T01:36:21;15.80;99.90
52555;DHT22;38455;52.710;6.502;2023-07-31T01:38:47;15.80;99.90
52555;DHT22;38455;52.710;6.502;2023-07-31T01:41:13;15.90;99.90
52555;DHT22;38455;52.710;6.502;2023-07-31T01:43:39;15.90;99.90
52555;DHT22;38455;52.710;6.502;2023-07-31T01:46:04;15.90;99.90
52555;DHT22;38455;52.710;6.502;2023-07-31T01:48:30;15.80;99.90
52555;DHT22;38455;52.710;6.502;2023-07-31T01:51:01;15.90;99.90
52555;DHT22;38455;52.710;6.502;2023-07-31T01:53:27;15.90;99.90
52555;DHT22;38455;52.710;6.502;2023-07-31T01:55:53;15.90;99.90
52555;DHT22;38455;52.710;6.502;2023-07-31T01:58:18;15.90;99.90
52555;DHT22;38455;52.710;6.502;2023-07-31T02:00:44;15.90;99.90
52555;DHT22;38455;52.710;6.502;2023-07-31T02:03:10;15.90;99.90
52555;DHT22;38455;52.710;6.502;2023-07-31T02:05:35;15.90;99.90
52555;DHT22;38455;52.710;6.502;2023-07-31T02:08:01;15.90;99.90
52555;DHT22;38455;52.710;6.502;2023-07-31T02:10:27;15.90;99.90
52555;DHT22;38455;52.710;6.502;2023-07-31T02:12:52;15.90;99.90
52555;DHT22;38455;52.710;6.502;2023-07-31T02:15:18;15.90;99.90
52555;DHT22;38455;52.710;6.502;2023-07-31T02:17:44;15.90;99.90
52555;DHT22;38455;52.710;6.502;2023-07-31T02:20:10;16.00;99.90
52555;DHT22;38455;52.710;6.502;2023-07-31T02:22:35;16.00;99.90
52555;DHT22;38455;52.710;6.502;2023-07-31T02:25:01;16.00;99.90
52555;DHT22;38455;52.710;6.502;2023-07-31T02:27:27;16.00;99.90
52555;DHT22;38455;52.710;6.502;2023-07-31T02:29:53;16.00;99.90
52555;DHT22;38455;52.710;6.502;2023-07-31T02:32:19;16.00;99.90
52555;DHT22;38455;52.710;6.502;2023-07-31T02:34:45;16.00;99.90
52555;DHT22;38455;52.710;6.502;2023-07-31T02:37:10;16.10;99.90
52555;DHT22;38455;52.710;6.502;2023-07-31T02:39:36;16.10;99.90
52555;DHT22;38455;52.710;6.502;2023-07-31T02:42:02;16.10;99.90
52555;DHT22;38455;52.710;6.502;2023-07-31T02:44:28;16.10;99.90
52555;DHT22;38455;52.710;6.502;2023-07-31T02:46:53;16.10;99.90
52555;DHT22;38455;52.710;6.502;2023-07-31T02:49:19;16.10;99.90
52555;DHT22;38455;52.710;6.502;2023-07-31T02:51:45;16.10;99.90
52555;DHT22;38455;52.710;6.502;2023-07-31T02:54:10;16.20;99.90
52555;DHT22;38455;52.710;6.502;2023-07-31T02:56:36;16.20;99.90
52555;DHT22;38455;52.710;6.502;2023-07-31T02:59:02;16.10;99.90
52555;DHT22;38455;52.710;6.502;2023-07-31T03:01:27;16.20;99.90
52555;DHT22;38455;52.710;6.502;2023-07-31T03:03:53;16.20;99.90
52555;DHT22;38455;52.710;6.502;2023-07-31T03:06:19;16.20;99.90
52555;DHT22;38455;52.710;6.502;2023-07-31T03:08:44;16.20;99.90
52555;DHT22;38455;52.710;6.502;2023-07-31T03:11:10;16.20;99.90
52555;DHT22;38455;52.710;6.502;2023-07-31T03:13:36;16.20;99.90
52555;DHT22;38455;52.710;6.502;2023-07-31T03:16:01;16.20;99.90
52555;DHT22;38455;52.710;6.502;2023-07-31T03:18:27;16.20;99.90
52555;DHT22;38455;52.710;6.502;2023-07-31T03:20:53;16.20;99.90
52555;DHT22;38455;52.710;6.502;2023-07-31T03:23:18;16.20;99.90
52555;DHT22;38455;52.710;6.502;2023-07-31T03:26:01;16.20;99.90
52555;DHT22;38455;52.710;6.502;2023-07-31T03:28:29;16.20;99.90
52555;DHT22;38455;52.710;6.502;2023-07-31T03:30:54;16.30;99.90
52555;DHT22;38455;52.710;6.502;2023-07-31T03:33:20;16.30;99.90
52555;DHT22;38455;52.710;6.502;2023-07-31T03:35:46;16.30;99.90
52555;DHT22;38455;52.710;6.502;2023-07-31T03:38:12;16.30;99.90
52555;DHT22;38455;52.710;6.502;2023-07-31T03:40:37;16.30;99.90
52555;DHT22;38455;52.710;6.502;2023-07-31T03:43:04;16.30;99.90
52555;DHT22;38455;52.710;6.502;2023-07-31T03:45:30;16.30;99.90
52555;DHT22;38455;52.710;6.502;2023-07-31T03:47:56;16.40;99.90
52555;DHT22;38455;52.710;6.502;2023-07-31T03:50:21;16.30;99.90
52555;DHT22;38455;52.710;6.502;2023-07-31T03:52:47;16.40;99.90
52555;DHT22;38455;52.710;6.502;2023-07-31T03:55:13;16.40;99.90
52555;DHT22;38455;52.710;6.502;2023-07-31T03:57:38;16.40;99.90
52555;DHT22;38455;52.710;6.502;2023-07-31T04:00:04;16.40;99.90
52555;DHT22;38455;52.710;6.502;2023-07-31T04:02:30;16.40;99.90
52555;DHT22;38455;52.710;6.502;2023-07-31T04:04:56;16.40;99.90
52555;DHT22;38455;52.710;6.502;2023-07-31T04:07:22;16.40;99.90
52555;DHT22;38455;52.710;6.502;2023-07-31T04:09:47;16.40;99.90
52555;DHT22;38455;52.710;6.502;2023-07-31T04:12:13;16.40;99.90
52555;DHT22;38455;52.710;6.502;2023-07-31T04:14:39;16.40;99.90
52555;DHT22;38455;52.710;6.502;2023-07-31T04:17:04;16.40;99.90
52555;DHT22;38455;52.710;6.502;2023-07-31T04:19:30;16.40;99.90
52555;DHT22;38455;52.710;6.502;2023-07-31T04:21:56;16.40;99.90
52555;DHT22;38455;52.710;6.502;2023-07-31T04:24:21;16.50;99.90
52555;DHT22;38455;52.710;6.502;2023-07-31T04:26:51;16.40;99.90
52555;DHT22;38455;52.710;6.502;2023-07-31T04:29:17;16.50;99.90
52555;DHT22;38455;52.710;6.502;2023-07-31T04:31:43;16.50;99.90
52555;DHT22;38455;52.710;6.502;2023-07-31T04:34:08;16.50;99.90
52555;DHT22;38455;52.710;6.502;2023-07-31T04:36:35;16.50;99.90
52555;DHT22;38455;52.710;6.502;2023-07-31T04:39:01;16.50;99.90
52555;DHT22;38455;52.710;6.502;2023-07-31T04:41:27;16.50;99.90
52555;DHT22;38455;52.710;6.502;2023-07-31T04:43:53;16.50;99.90
52555;DHT22;38455;52.710;6.502;2023-07-31T04:46:19;16.50;99.90
52555;DHT22;38455;52.710;6.502;2023-07-31T04:48:44;16.50;99.90
52555;DHT22;38455;52.710;6.502;2023-07-31T04:51:10;16.50;99.90
52555;DHT22;38455;52.710;6.502;2023-07-31T04:53:36;16.60;99.90
52555;DHT22;38455;52.710;6.502;2023-07-31T04:56:02;16.60;99.90
52555;DHT22;38455;52.710;6.502;2023-07-31T04:58:27;16.60;99.90
52555;DHT22;38455;52.710;6.502;2023-07-31T05:00:53;16.60;99.90
52555;DHT22;38455;52.710;6.502;2023-07-31T05:03:19;16.60;99.90
52555;DHT22;38455;52.710;6.502;2023-07-31T05:05:44;16.60;99.90
52555;DHT22;38455;52.710;6.502;2023-07-31T05:08:10;16.60;99.90
52555;DHT22;38455;52.710;6.502;2023-07-31T05:10:36;16.60;99.90
52555;DHT22;38455;52.710;6.502;2023-07-31T05:13:01;16.60;99.90
52555;DHT22;38455;52.710;6.502;2023-07-31T05:15:28;16.70;99.90
52555;DHT22;38455;52.710;6.502;2023-07-31T05:17:53;16.70;99.90
52555;DHT22;38455;52.710;6.502;2023-07-31T05:20:20;16.70;99.90
52555;DHT22;38455;52.710;6.502;2023-07-31T05:22:45;16.70;99.90
52555;DHT22;38455;52.710;6.502;2023-07-31T05:25:11;16.80;99.90
52555;DHT22;38455;52.710;6.502;2023-07-31T05:27:36;16.80;99.90
52555;DHT22;38455;52.710;6.502;2023-07-31T05:30:02;16.80;99.90
52555;DHT22;38455;52.710;6.502;2023-07-31T05:32:28;16.80;99.90
52555;DHT22;38455;52.710;6.502;2023-07-31T05:34:54;16.80;99.90
52555;DHT22;38455;52.710;6.502;2023-07-31T05:37:20;16.80;99.90
52555;DHT22;38455;52.710;6.502;2023-07-31T05:39:46;16.90;99.90
52555;DHT22;38455;52.710;6.502;2023-07-31T05:42:11;16.80;99.90
52555;DHT22;38455;52.710;6.502;2023-07-31T05:44:37;16.80;99.90
52555;DHT22;38455;52.710;6.502;2023-07-31T05:47:03;16.90;99.90
52555;DHT22;38455;52.710;6.502;2023-07-31T05:49:28;16.90;99.90
52555;DHT22;38455;52.710;6.502;2023-07-31T05:51:54;16.80;99.90
52555;DHT22;38455;52.710;6.502;2023-07-31T05:54:20;16.90;99.90
52555;DHT22;38455;52.710;6.502;2023-07-31T05:56:45;16.90;99.90
52555;DHT22;38455;52.710;6.502;2023-07-31T05:59:12;16.90;99.90
52555;DHT22;38455;52.710;6.502;2023-07-31T06:01:38;16.80;99.90
52555;DHT22;38455;52.710;6.502;2023-07-31T06:04:03;16.90;99.90
52555;DHT22;38455;52.710;6.502;2023-07-31T06:06:29;16.90;99.90
52555;DHT22;38455;52.710;6.502;2023-07-31T06:08:55;16.90;99.90
52555;DHT22;38455;52.710;6.502;2023-07-31T06:11:21;16.90;99.90
52555;DHT22;38455;52.710;6.502;2023-07-31T06:13:47;16.90;99.90
52555;DHT22;38455;52.710;6.502;2023-07-31T06:16:14;16.90;99.90
52555;DHT22;38455;52.710;6.502;2023-07-31T06:18:41;16.90;99.90
52555;DHT22;38455;52.710;6.502;2023-07-31T06:21:07;16.90;99.90
52555;DHT22;38455;52.710;6.502;2023-07-31T06:23:32;17.00;99.90
52555;DHT22;38455;52.710;6.502;2023-07-31T06:25:58;17.00;99.90
52555;DHT22;38455;52.710;6.502;2023-07-31T06:28:28;17.00;99.90
52555;DHT22;38455;52.710;6.502;2023-07-31T06:30:54;17.00;99.90
52555;DHT22;38455;52.710;6.502;2023-07-31T06:33:20;17.00;99.90
52555;DHT22;38455;52.710;6.502;2023-07-31T06:35:46;17.00;99.90
52555;DHT22;38455;52.710;6.502;2023-07-31T06:38:12;16.90;99.90
52555;DHT22;38455;52.710;6.502;2023-07-31T06:40:37;16.90;99.90
52555;DHT22;38455;52.710;6.502;2023-07-31T06:43:03;16.90;99.90
52555;DHT22;38455;52.710;6.502;2023-07-31T06:45:36;16.90;99.90
52555;DHT22;38455;52.710;6.502;2023-07-31T06:48:03;16.90;99.90
52555;DHT22;38455;52.710;6.502;2023-07-31T06:50:30;16.90;99.90
52555;DHT22;38455;52.710;6.502;2023-07-31T06:52:55;16.90;99.90
52555;DHT22;38455;52.710;6.502;2023-07-31T06:55:22;16.90;99.90
52555;DHT22;38455;52.710;6.502;2023-07-31T06:57:49;17.00;99.90
52555;DHT22;38455;52.710;6.502;2023-07-31T07:00:16;16.90;99.90
52555;DHT22;38455;52.710;6.502;2023-07-31T07:02:42;16.90;99.90
52555;DHT22;38455;52.710;6.502;2023-07-31T07:05:08;17.00;99.90
52555;DHT22;38455;52.710;6.502;2023-07-31T07:07:35;17.00;99.90
52555;DHT22;38455;52.710;6.502;2023-07-31T07:10:01;17.10;99.90
52555;DHT22;38455;52.710;6.502;2023-07-31T07:12:32;17.00;99.90
52555;DHT22;38455;52.710;6.502;2023-07-31T07:14:59;17.10;99.90
52555;DHT22;38455;52.710;6.502;2023-07-31T07:17:25;17.10;99.90
52555;DHT22;38455;52.710;6.502;2023-07-31T07:19:51;17.20;99.90
52555;DHT22;38455;52.710;6.502;2023-07-31T07:22:18;17.30;99.90
52555;DHT22;38455;52.710;6.502;2023-07-31T07:24:43;17.30;99.90
52555;DHT22;38455;52.710;6.502;2023-07-31T07:27:09;17.30;99.90
52555;DHT22;38455;52.710;6.502;2023-07-31T07:29:35;17.30;99.90
52555;DHT22;38455;52.710;6.502;2023-07-31T07:32:01;17.30;99.90
52555;DHT22;38455;52.710;6.502;2023-07-31T07:34:27;17.30;99.90
52555;DHT22;38455;52.710;6.502;2023-07-31T07:36:54;17.20;99.90
52555;DHT22;38455;52.710;6.502;2023-07-31T07:39:20;17.30;99.90
52555;DHT22;38455;52.710;6.502;2023-07-31T07:41:46;17.20;99.90
52555;DHT22;38455;52.710;6.502;2023-07-31T07:44:12;17.20;99.90
52555;DHT22;38455;52.710;6.502;2023-07-31T07:46:38;17.30;99.90
52555;DHT22;38455;52.710;6.502;2023-07-31T07:49:04;17.30;99.90
52555;DHT22;38455;52.710;6.502;2023-07-31T07:51:30;17.30;99.90
52555;DHT22;38455;52.710;6.502;2023-07-31T07:53:57;17.30;99.90
52555;DHT22;38455;52.710;6.502;2023-07-31T07:56:25;17.30;99.90
52555;DHT22;38455;52.710;6.502;2023-07-31T07:58:51;17.30;99.90
52555;DHT22;38455;52.710;6.502;2023-07-31T08:01:16;17.30;99.90
52555;DHT22;38455;52.710;6.502;2023-07-31T08:03:42;17.30;99.90
52555;DHT22;38455;52.710;6.502;2023-07-31T08:06:09;17.30;99.90
52555;DHT22;38455;52.710;6.502;2023-07-31T08:08:38;17.40;99.90
52555;DHT22;38455;52.710;6.502;2023-07-31T08:11:04;17.40;99.90
52555;DHT22;38455;52.710;6.502;2023-07-31T08:13:30;17.50;99.90
52555;DHT22;38455;52.710;6.502;2023-07-31T08:15:56;17.60;99.90
52555;DHT22;38455;52.710;6.502;2023-07-31T08:18:22;17.60;99.90
52555;DHT22;38455;52.710;6.502;2023-07-31T08:20:47;17.60;99.90
52555;DHT22;38455;52.710;6.502;2023-07-31T08:23:13;17.70;99.90
52555;DHT22;38455;52.710;6.502;2023-07-31T08:25:39;17.70;99.90
52555;DHT22;38455;52.710;6.502;2023-07-31T08:28:05;17.70;99.90
52555;DHT22;38455;52.710;6.502;2023-07-31T08:30:31;17.70;99.90
52555;DHT22;38455;52.710;6.502;2023-07-31T08:32:57;17.70;99.90
52555;DHT22;38455;52.710;6.502;2023-07-31T08:35:23;17.80;99.90
52555;DHT22;38455;52.710;6.502;2023-07-31T08:37:49;17.80;99.90
52555;DHT22;38455;52.710;6.502;2023-07-31T08:40:15;17.90;99.90
52555;DHT22;38455;52.710;6.502;2023-07-31T08:42:48;18.00;99.90
52555;DHT22;38455;52.710;6.502;2023-07-31T08:45:15;18.00;99.90
52555;DHT22;38455;52.710;6.502;2023-07-31T08:47:51;18.10;99.90
52555;DHT22;38455;52.710;6.502;2023-07-31T08:50:18;18.10;99.90
52555;DHT22;38455;52.710;6.502;2023-07-31T08:52:45;18.00;99.90
52555;DHT22;38455;52.710;6.502;2023-07-31T08:55:11;18.10;99.90
52555;DHT22;38455;52.710;6.502;2023-07-31T08:57:38;18.10;99.90
52555;DHT22;38455;52.710;6.502;2023-07-31T09:00:05;18.00;99.90
52555;DHT22;38455;52.710;6.502;2023-07-31T09:05:09;18.10;99.90
52555;DHT22;38455;52.710;6.502;2023-07-31T09:07:36;18.10;99.90
52555;DHT22;38455;52.710;6.502;2023-07-31T09:10:03;18.20;99.90
52555;DHT22;38455;52.710;6.502;2023-07-31T09:12:29;18.20;99.90
52555;DHT22;38455;52.710;6.502;2023-07-31T09:14:57;18.20;99.90
52555;DHT22;38455;52.710;6.502;2023-07-31T09:17:36;18.30;99.90
52555;DHT22;38455;52.710;6.502;2023-07-31T09:20:22;18.30;99.90
52555;DHT22;38455;52.710;6.502;2023-07-31T09:22:48;18.30;99.90
52555;DHT22;38455;52.710;6.502;2023-07-31T09:25:25;18.30;99.90
52555;DHT22;38455;52.710;6.502;2023-07-31T09:28:04;18.40;99.90
52555;DHT22;38455;52.710;6.502;2023-07-31T09:30:30;18.40;99.90
52555;DHT22;38455;52.710;6.502;2023-07-31T09:33:06;18.40;99.90
52555;DHT22;38455;52.710;6.502;2023-07-31T09:35:35;18.50;99.90
52555;DHT22;38455;52.710;6.502;2023-07-31T09:38:06;18.40;99.90
52555;DHT22;38455;52.710;6.502;2023-07-31T09:40:36;18.50;99.90
52555;DHT22;38455;52.710;6.502;2023-07-31T09:43:06;18.50;99.90
52555;DHT22;38455;52.710;6.502;2023-07-31T09:45:40;18.60;99.90
52555;DHT22;38455;52.710;6.502;2023-07-31T09:48:19;18.60;99.90
52555;DHT22;38455;52.710;6.502;2023-07-31T09:50:47;18.60;99.90
52555;DHT22;38455;52.710;6.502;2023-07-31T09:53:14;18.70;99.90
52555;DHT22;38455;52.710;6.502;2023-07-31T09:55:41;18.70;99.90
52555;DHT22;38455;52.710;6.502;2023-07-31T09:58:11;18.80;99.90
52555;DHT22;38455;52.710;6.502;2023-07-31T10:00:37;18.80;99.90
52555;DHT22;38455;52.710;6.502;2023-07-31T10:03:08;18.90;99.90
52555;DHT22;38455;52.710;6.502;2023-07-31T10:05:45;18.90;99.90
52555;DHT22;38455;52.710;6.502;2023-07-31T10:08:14;18.90;99.90
52555;DHT22;38455;52.710;6.502;2023-07-31T10:10:42;19.00;99.90
52555;DHT22;38455;52.710;6.502;2023-07-31T10:13:08;19.00;99.90
52555;DHT22;38455;52.710;6.502;2023-07-31T10:15:36;19.10;99.90
52555;DHT22;38455;52.710;6.502;2023-07-31T10:18:02;19.10;99.90
52555;DHT22;38455;52.710;6.502;2023-07-31T10:20:29;19.10;99.90
52555;DHT22;38455;52.710;6.502;2023-07-31T10:22:56;19.20;99.90
52555;DHT22;38455;52.710;6.502;2023-07-31T10:25:22;19.20;99.90
52555;DHT22;38455;52.710;6.502;2023-07-31T10:27:49;19.20;99.90
52555;DHT22;38455;52.710;6.502;2023-07-31T10:30:17;19.20;99.90
52555;DHT22;38455;52.710;6.502;2023-07-31T10:32:44;19.30;99.90
52555;DHT22;38455;52.710;6.502;2023-07-31T10:35:11;19.40;99.90
52555;DHT22;38455;52.710;6.502;2023-07-31T10:37:37;19.50;99.90
52555;DHT22;38455;52.710;6.502;2023-07-31T10:42:36;19.70;99.90
52555;DHT22;38455;52.710;6.502;2023-07-31T10:45:07;19.80;99.90
52555;DHT22;38455;52.710;6.502;2023-07-31T10:47:43;19.80;99.90
52555;DHT22;38455;52.710;6.502;2023-07-31T10:50:20;19.80;99.90
52555;DHT22;38455;52.710;6.502;2023-07-31T10:52:57;19.90;99.90
52555;DHT22;38455;52.710;6.502;2023-07-31T10:55:46;20.00;99.90
52555;DHT22;38455;52.710;6.502;2023-07-31T10:58:13;20.00;99.90
52555;DHT22;38455;52.710;6.502;2023-07-31T11:00:43;20.10;99.90
52555;DHT22;38455;52.710;6.502;2023-07-31T11:08:23;20.00;99.90
52555;DHT22;38455;52.710;6.502;2023-07-31T11:10:51;20.00;99.90
52555;DHT22;38455;52.710;6.502;2023-07-31T11:13:33;19.90;99.90
52555;DHT22;38455;52.710;6.502;2023-07-31T11:16:00;19.90;99.90
52555;DHT22;38455;52.710;6.502;2023-07-31T11:18:26;20.00;99.90
52555;DHT22;38455;52.710;6.502;2023-07-31T11:20:53;20.10;99.90
52555;DHT22;38455;52.710;6.502;2023-07-31T11:23:19;20.10;99.90
52555;DHT22;38455;52.710;6.502;2023-07-31T11:25:45;20.30;99.90
52555;DHT22;38455;52.710;6.502;2023-07-31T11:28:14;20.30;99.90
52555;DHT22;38455;52.710;6.502;2023-07-31T11:30:42;20.30;99.90
52555;DHT22;38455;52.710;6.502;2023-07-31T11:33:10;20.20;99.90
52555;DHT22;38455;52.710;6.502;2023-07-31T11:35:46;20.10;99.90
52555;DHT22;38455;52.710;6.502;2023-07-31T11:38:33;20.00;99.90
52555;DHT22;38455;52.710;6.502;2023-07-31T11:41:00;19.90;99.90
52555;DHT22;38455;52.710;6.502;2023-07-31T11:43:28;19.70;99.90
52555;DHT22;38455;52.710;6.502;2023-07-31T11:45:58;19.60;99.90
52555;DHT22;38455;52.710;6.502;2023-07-31T11:48:29;19.60;99.90
52555;DHT22;38455;52.710;6.502;2023-07-31T11:50:58;19.50;99.90
52555;DHT22;38455;52.710;6.502;2023-07-31T11:53:43;19.40;99.90
52555;DHT22;38455;52.710;6.502;2023-07-31T11:56:13;19.50;99.90
52555;DHT22;38455;52.710;6.502;2023-07-31T11:58:39;19.50;99.90
52555;DHT22;38455;52.710;6.502;2023-07-31T12:01:06;19.40;99.90
52555;DHT22;38455;52.710;6.502;2023-07-31T12:03:33;19.50;99.90
52555;DHT22;38455;52.710;6.502;2023-07-31T12:05:59;19.60;99.90
52555;DHT22;38455;52.710;6.502;2023-07-31T12:08:25;19.70;99.90
52555;DHT22;38455;52.710;6.502;2023-07-31T12:10:52;20.00;99.90
52555;DHT22;38455;52.710;6.502;2023-07-31T12:13:22;20.40;99.90
52555;DHT22;38455;52.710;6.502;2023-07-31T12:15:53;20.70;99.90
52555;DHT22;38455;52.710;6.502;2023-07-31T12:18:22;20.90;99.90
52555;DHT22;38455;52.710;6.502;2023-07-31T12:20:53;20.80;99.90
52555;DHT22;38455;52.710;6.502;2023-07-31T12:23:22;20.70;99.90
52555;DHT22;38455;52.710;6.502;2023-07-31T12:26:08;20.50;99.90
52555;DHT22;38455;52.710;6.502;2023-07-31T12:28:42;20.30;99.90
52555;DHT22;38455;52.710;6.502;2023-07-31T12:31:20;20.20;99.90
52555;DHT22;38455;52.710;6.502;2023-07-31T12:33:48;20.10;99.90
52555;DHT22;38455;52.710;6.502;2023-07-31T12:36:23;20.10;99.90
52555;DHT22;38455;52.710;6.502;2023-07-31T12:38:52;20.20;99.90
52555;DHT22;38455;52.710;6.502;2023-07-31T12:41:18;20.40;99.90
52555;DHT22;38455;52.710;6.502;2023-07-31T12:43:45;20.80;99.90
52555;DHT22;38455;52.710;6.502;2023-07-31T12:46:11;21.10;99.90
52555;DHT22;38455;52.710;6.502;2023-07-31T12:48:38;21.30;99.90
52555;DHT22;38455;52.710;6.502;2023-07-31T12:51:04;21.40;99.90
52555;DHT22;38455;52.710;6.502;2023-07-31T12:53:30;21.30;99.90
52555;DHT22;38455;52.710;6.502;2023-07-31T12:55:56;20.90;99.90
52555;DHT22;38455;52.710;6.502;2023-07-31T12:58:22;20.70;99.90
52555;DHT22;38455;52.710;6.502;2023-07-31T13:00:48;20.40;99.90
52555;DHT22;38455;52.710;6.502;2023-07-31T13:03:14;20.30;99.90
52555;DHT22;38455;52.710;6.502;2023-07-31T13:05:39;20.30;99.90
52555;DHT22;38455;52.710;6.502;2023-07-31T13:08:05;20.30;99.90
52555;DHT22;38455;52.710;6.502;2023-07-31T13:10:31;20.50;99.90
52555;DHT22;38455;52.710;6.502;2023-07-31T13:12:57;20.70;99.90
52555;DHT22;38455;52.710;6.502;2023-07-31T13:15:22;20.70;99.90
52555;DHT22;38455;52.710;6.502;2023-07-31T13:17:48;20.80;99.90
52555;DHT22;38455;52.710;6.502;2023-07-31T13:20:14;20.90;99.90
52555;DHT22;38455;52.710;6.502;2023-07-31T13:22:40;20.80;99.90
52555;DHT22;38455;52.710;6.502;2023-07-31T13:25:06;20.80;99.90
52555;DHT22;38455;52.710;6.502;2023-07-31T13:27:32;20.80;99.90
52555;DHT22;38455;52.710;6.502;2023-07-31T13:29:58;20.80;99.90
52555;DHT22;38455;52.710;6.502;2023-07-31T13:32:23;20.80;99.90
52555;DHT22;38455;52.710;6.502;2023-07-31T13:34:49;20.90;99.90
52555;DHT22;38455;52.710;6.502;2023-07-31T13:37:15;20.90;99.90
52555;DHT22;38455;52.710;6.502;2023-07-31T13:39:41;21.00;99.90
52555;DHT22;38455;52.710;6.502;2023-07-31T13:42:08;20.90;99.90
52555;DHT22;38455;52.710;6.502;2023-07-31T13:44:34;20.90;99.90
52555;DHT22;38455;52.710;6.502;2023-07-31T13:47:00;20.90;99.90
52555;DHT22;38455;52.710;6.502;2023-07-31T13:49:27;21.00;99.90
52555;DHT22;38455;52.710;6.502;2023-07-31T13:51:52;21.00;99.90
52555;DHT22;38455;52.710;6.502;2023-07-31T13:54:18;21.00;99.90
52555;DHT22;38455;52.710;6.502;2023-07-31T13:56:44;21.00;99.90
52555;DHT22;38455;52.710;6.502;2023-07-31T13:59:10;21.00;99.90
52555;DHT22;38455;52.710;6.502;2023-07-31T14:01:36;21.00;99.90
52555;DHT22;38455;52.710;6.502;2023-07-31T14:04:02;20.90;99.90
52555;DHT22;38455;52.710;6.502;2023-07-31T14:06:27;20.90;99.90
52555;DHT22;38455;52.710;6.502;2023-07-31T14:08:53;20.90;99.90
52555;DHT22;38455;52.710;6.502;2023-07-31T14:11:19;20.90;99.90
52555;DHT22;38455;52.710;6.502;2023-07-31T14:13:45;21.00;99.90
52555;DHT22;38455;52.710;6.502;2023-07-31T14:16:10;21.00;99.90
52555;DHT22;38455;52.710;6.502;2023-07-31T14:18:36;21.10;99.90
52555;DHT22;38455;52.710;6.502;2023-07-31T14:21:02;21.20;99.90
52555;DHT22;38455;52.710;6.502;2023-07-31T14:23:27;21.30;99.90
52555;DHT22;38455;52.710;6.502;2023-07-31T14:25:53;21.30;99.90
52555;DHT22;38455;52.710;6.502;2023-07-31T14:28:19;21.30;99.90
52555;DHT22;38455;52.710;6.502;2023-07-31T14:30:44;21.30;99.90
52555;DHT22;38455;52.710;6.502;2023-07-31T14:33:10;21.30;99.90
52555;DHT22;38455;52.710;6.502;2023-07-31T14:35:36;21.30;99.90
52555;DHT22;38455;52.710;6.502;2023-07-31T14:38:01;21.20;99.90
52555;DHT22;38455;52.710;6.502;2023-07-31T14:40:27;21.10;99.90
52555;DHT22;38455;52.710;6.502;2023-07-31T14:42:53;21.10;99.90
52555;DHT22;38455;52.710;6.502;2023-07-31T14:45:18;21.10;99.90
52555;DHT22;38455;52.710;6.502;2023-07-31T14:47:44;21.00;99.90
52555;DHT22;38455;52.710;6.502;2023-07-31T14:50:10;21.00;99.90
52555;DHT22;38455;52.710;6.502;2023-07-31T14:52:36;20.90;99.90
52555;DHT22;38455;52.710;6.502;2023-07-31T14:55:01;20.90;99.90
52555;DHT22;38455;52.710;6.502;2023-07-31T14:57:27;20.90;99.90
52555;DHT22;38455;52.710;6.502;2023-07-31T14:59:53;20.80;99.90
52555;DHT22;38455;52.710;6.502;2023-07-31T15:02:19;20.80;99.90
52555;DHT22;38455;52.710;6.502;2023-07-31T15:04:44;20.80;99.90
52555;DHT22;38455;52.710;6.502;2023-07-31T15:07:10;20.60;99.90
52555;DHT22;38455;52.710;6.502;2023-07-31T15:09:36;20.60;99.90
52555;DHT22;38455;52.710;6.502;2023-07-31T15:12:01;20.50;99.90
52555;DHT22;38455;52.710;6.502;2023-07-31T15:14:27;20.50;99.90
52555;DHT22;38455;52.710;6.502;2023-07-31T15:16:53;20.50;99.90
52555;DHT22;38455;52.710;6.502;2023-07-31T15:19:19;20.40;99.90
52555;DHT22;38455;52.710;6.502;2023-07-31T15:21:45;20.40;99.90
52555;DHT22;38455;52.710;6.502;2023-07-31T15:24:11;20.40;99.90
52555;DHT22;38455;52.710;6.502;2023-07-31T15:26:39;20.40;99.90
52555;DHT22;38455;52.710;6.502;2023-07-31T15:29:07;20.30;99.90
52555;DHT22;38455;52.710;6.502;2023-07-31T15:31:45;20.30;99.90
52555;DHT22;38455;52.710;6.502;2023-07-31T15:34:12;20.10;99.90
52555;DHT22;38455;52.710;6.502;2023-07-31T15:36:38;20.00;99.90
52555;DHT22;38455;52.710;6.502;2023-07-31T15:39:04;20.00;99.90
52555;DHT22;38455;52.710;6.502;2023-07-31T15:41:30;19.90;99.90
52555;DHT22;38455;52.710;6.502;2023-07-31T15:43:56;19.90;99.90